sensor_id;sensor_type;location;lat;lon;timestamp;temperature;humidity
2202;DHT22;1107;48.654;9.250;2023-04-29T00:00:49;13.10;99.90
2202;DHT22;1107;48.654;9.250;2023-04-29T00:03:15;13.10;99.90
2202;DHT22;1107;48.654;9.250;2023-04-29T00:05:45;13.10;99.90
2202;DHT22;1107;48.654;9.250;2023-04-29T00:08:12;13.10;99.90
2202;DHT22;1107;48.654;9.250;2023-04-29T00:10:39;13.10;99.90
2202;DHT22;1107;48.654;9.250;2023-04-29T00:13:06;13.10;99.90
2202;DHT22;1107;48.654;9.250;2023-04-29T00:15:33;13.10;99.90
2202;DHT22;1107;48.654;9.250;2023-04-29T00:18:01;13.10;99.90
2202;DHT22;1107;48.654;9.250;2023-04-29T00:20:28;13.10;99.90
2202;DHT22;1107;48.654;9.250;2023-04-29T00:22:57;13.10;99.90
2202;DHT22;1107;48.654;9.250;2023-04-29T00:25:24;13.10;99.90
2202;DHT22;1107;48.654;9.250;2023-04-29T00:27:51;13.00;99.90
2202;DHT22;1107;48.654;9.250;2023-04-29T00:30:18;13.00;99.90
2202;DHT22;1107;48.654;9.250;2023-04-29T00:32:45;13.00;99.90
2202;DHT22;1107;48.654;9.250;2023-04-29T00:35:12;13.00;99.90
2202;DHT22;1107;48.654;9.250;2023-04-29T00:37:39;13.00;99.90
2202;DHT22;1107;48.654;9.250;2023-04-29T00:40:09;13.00;99.90
2202;DHT22;1107;48.654;9.250;2023-04-29T00:42:39;13.00;99.90
2202;DHT22;1107;48.654;9.250;2023-04-29T00:45:08;13.00;99.90
2202;DHT22;1107;48.654;9.250;2023-04-29T00:47:36;13.00;99.90
2202;DHT22;1107;48.654;9.250;2023-04-29T00:50:04;13.00;99.90
2202;DHT22;1107;48.654;9.250;2023-04-29T00:52:33;13.00;99.90
2202;DHT22;1107;48.654;9.250;2023-04-29T00:55:00;13.00;99.90
2202;DHT22;1107;48.654;9.250;2023-04-29T00:57:29;12.90;99.90
2202;DHT22;1107;48.654;9.250;2023-04-29T00:59:57;12.90;99.90
2202;DHT22;1107;48.654;9.250;2023-04-29T01:02:24;13.00;99.90
2202;DHT22;1107;48.654;9.250;2023-04-29T01:04:52;13.00;99.90
2202;DHT22;1107;48.654;9.250;2023-04-29T01:07:25;13.00;99.90
2202;DHT22;1107;48.654;9.250;2023-04-29T01:10:02;12.90;99.90
2202;DHT22;1107;48.654;9.250;2023-04-29T01:12:37;12.90;99.90
2202;DHT22;1107;48.654;9.250;2023-04-29T01:15:09;12.90;99.90
2202;DHT22;1107;48.654;9.250;2023-04-29T01:17:40;12.90;99.90
2202;DHT22;1107;48.654;9.250;2023-04-29T01:20:09;12.90;99.90
2202;DHT22;1107;48.654;9.250;2023-04-29T01:22:36;12.90;99.90
2202;DHT22;1107;48.654;9.250;2023-04-29T01:25:06;12.90;99.90
2202;DHT22;1107;48.654;9.250;2023-04-29T01:27:38;12.80;99.90
2202;DHT22;1107;48.654;9.250;2023-04-29T01:30:11;12.90;99.90
2202;DHT22;1107;48.654;9.250;2023-04-29T01:32:51;12.90;99.90
2202;DHT22;1107;48.654;9.250;2023-04-29T01:35:31;12.90;99.90
2202;DHT22;1107;48.654;9.250;2023-04-29T01:38:09;12.90;99.90
2202;DHT22;1107;48.654;9.250;2023-04-29T01:40:46;12.90;99.90
2202;DHT22;1107;48.654;9.250;2023-04-29T01:43:14;12.90;99.90
2202;DHT22;1107;48.654;9.250;2023-04-29T01:45:42;12.90;99.90
2202;DHT22;1107;48.654;9.250;2023-04-29T01:48:10;12.80;99.90
2202;DHT22;1107;48.654;9.250;2023-04-29T01:50:37;12.80;99.90
2202;DHT22;1107;48.654;9.250;2023-04-29T01:53:04;12.90;99.90
2202;DHT22;1107;48.654;9.250;2023-04-29T01:55:32;12.80;99.90
2202;DHT22;1107;48.654;9.250;2023-04-29T01:58:01;12.80;99.90
2202;DHT22;1107;48.654;9.250;2023-04-29T02:00:28;12.70;99.90
2202;DHT22;1107;48.654;9.250;2023-04-29T02:02:55;12.70;99.90
2202;DHT22;1107;48.654;9.250;2023-04-29T02:05:22;12.70;99.90
2202;DHT22;1107;48.654;9.250;2023-04-29T02:07:49;12.70;99.90
2202;DHT22;1107;48.654;9.250;2023-04-29T02:10:16;12.60;99.90
2202;DHT22;1107;48.654;9.250;2023-04-29T02:12:43;12.60;99.90
2202;DHT22;1107;48.654;9.250;2023-04-29T02:15:12;12.60;99.90
2202;DHT22;1107;48.654;9.250;2023-04-29T02:17:39;12.60;99.90
2202;DHT22;1107;48.654;9.250;2023-04-29T02:20:07;12.50;99.90
2202;DHT22;1107;48.654;9.250;2023-04-29T02:22:34;12.50;99.90
2202;DHT22;1107;48.654;9.250;2023-04-29T02:25:02;12.40;99.90
2202;DHT22;1107;48.654;9.250;2023-04-29T02:27:29;12.30;99.90
2202;DHT22;1107;48.654;9.250;2023-04-29T02:29:56;12.30;99.90
2202;DHT22;1107;48.654;9.250;2023-04-29T02:32:24;12.20;99.90
2202;DHT22;1107;48.654;9.250;2023-04-29T02:34:51;12.20;99.90
2202;DHT22;1107;48.654;9.250;2023-04-29T02:37:18;12.20;99.90
2202;DHT22;1107;48.654;9.250;2023-04-29T02:39:45;12.20;99.90
2202;DHT22;1107;48.654;9.250;2023-04-29T02:42:12;12.10;99.90
2202;DHT22;1107;48.654;9.250;2023-04-29T02:44:39;12.10;99.90
2202;DHT22;1107;48.654;9.250;2023-04-29T02:47:07;12.10;99.90
2202;DHT22;1107;48.654;9.250;2023-04-29T02:49:35;12.10;99.90
2202;DHT22;1107;48.654;9.250;2023-04-29T02:52:02;12.10;99.90
2202;DHT22;1107;48.654;9.250;2023-04-29T02:54:29;12.10;99.90
2202;DHT22;1107;48.654;9.250;2023-04-29T02:56:56;12.10;99.90
2202;DHT22;1107;48.654;9.250;2023-04-29T02:59:23;12.10;99.90
2202;DHT22;1107;48.654;9.250;2023-04-29T03:01:50;12.00;99.90
2202;DHT22;1107;48.654;9.250;2023-04-29T03:04:18;12.00;99.90
2202;DHT22;1107;48.654;9.250;2023-04-29T03:06:47;12.00;99.90
2202;DHT22;1107;48.654;9.250;2023-04-29T03:09:14;12.00;99.90
2202;DHT22;1107;48.654;9.250;2023-04-29T03:11:40;12.00;99.90
2202;DHT22;1107;48.654;9.250;2023-04-29T03:14:07;11.90;99.90
2202;DHT22;1107;48.654;9.250;2023-04-29T03:16:34;11.90;99.90
2202;DHT22;1107;48.654;9.250;2023-04-29T03:19:01;11.90;99.90
2202;DHT22;1107;48.654;9.250;2023-04-29T03:21:28;11.90;99.90
2202;DHT22;1107;48.654;9.250;2023-04-29T03:23:57;11.90;99.90
2202;DHT22;1107;48.654;9.250;2023-04-29T03:26:24;11.90;99.90
2202;DHT22;1107;48.654;9.250;2023-04-29T03:28:51;11.90;99.90
2202;DHT22;1107;48.654;9.250;2023-04-29T03:31:18;11.90;99.90
2202;DHT22;1107;48.654;9.250;2023-04-29T03:33:45;11.90;99.90
2202;DHT22;1107;48.654;9.250;2023-04-29T03:36:12;11.90;99.90
2202;DHT22;1107;48.654;9.250;2023-04-29T03:38:39;11.90;99.90
2202;DHT22;1107;48.654;9.250;2023-04-29T03:41:08;11.90;99.90
2202;DHT22;1107;48.654;9.250;2023-04-29T03:43:35;11.90;99.90
2202;DHT22;1107;48.654;9.250;2023-04-29T03:46:02;11.80;99.90
2202;DHT22;1107;48.654;9.250;2023-04-29T03:48:29;11.80;99.90
2202;DHT22;1107;48.654;9.250;2023-04-29T03:50:56;11.70;99.90
2202;DHT22;1107;48.654;9.250;2023-04-29T03:53:23;11.70;99.90
2202;DHT22;1107;48.654;9.250;2023-04-29T03:55:50;11.70;99.90
2202;DHT22;1107;48.654;9.250;2023-04-29T03:58:19;11.60;99.90
2202;DHT22;1107;48.654;9.250;2023-04-29T04:00:46;11.60;99.90
2202;DHT22;1107;48.654;9.250;2023-04-29T04:03:12;11.50;99.90
2202;DHT22;1107;48.654;9.250;2023-04-29T04:05:39;11.50;99.90
2202;DHT22;1107;48.654;9.250;2023-04-29T04:08:06;11.50;99.90
2202;DHT22;1107;48.654;9.250;2023-04-29T04:10:33;11.50;99.90
2202;DHT22;1107;48.654;9.250;2023-04-29T04:13:00;11.50;99.90
2202;DHT22;1107;48.654;9.250;2023-04-29T04:15:28;11.40;99.90
2202;DHT22;1107;48.654;9.250;2023-04-29T04:17:55;11.40;99.90
2202;DHT22;1107;48.654;9.250;2023-04-29T04:20:22;11.40;99.90
2202;DHT22;1107;48.654;9.250;2023-04-29T04:22:49;11.50;99.90
2202;DHT22;1107;48.654;9.250;2023-04-29T04:25:16;11.40;99.90
2202;DHT22;1107;48.654;9.250;2023-04-29T04:27:43;11.40;99.90
2202;DHT22;1107;48.654;9.250;2023-04-29T04:30:11;11.40;99.90
2202;DHT22;1107;48.654;9.250;2023-04-29T04:32:39;11.50;99.90
2202;DHT22;1107;48.654;9.250;2023-04-29T04:35:07;11.50;99.90
2202;DHT22;1107;48.654;9.250;2023-04-29T04:37:34;11.60;99.90
2202;DHT22;1107;48.654;9.250;2023-04-29T04:40:01;11.60;99.90
2202;DHT22;1107;48.654;9.250;2023-04-29T04:42:28;11.70;99.90
2202;DHT22;1107;48.654;9.250;2023-04-29T04:44:55;11.80;99.90
2202;DHT22;1107;48.654;9.250;2023-04-29T04:47:22;11.90;99.90
2202;DHT22;1107;48.654;9.250;2023-04-29T04:49:51;12.10;99.90
2202;DHT22;1107;48.654;9.250;2023-04-29T04:52:19;12.20;99.90
2202;DHT22;1107;48.654;9.250;2023-04-29T04:54:46;12.30;99.90
2202;DHT22;1107;48.654;9.250;2023-04-29T04:57:13;12.40;99.90
2202;DHT22;1107;48.654;9.250;2023-04-29T04:59:41;12.50;99.90
2202;DHT22;1107;48.654;9.250;2023-04-29T05:02:08;12.60;99.90
2202;DHT22;1107;48.654;9.250;2023-04-29T05:04:35;12.70;99.90
2202;DHT22;1107;48.654;9.250;2023-04-29T05:07:03;12.70;99.90
2202;DHT22;1107;48.654;9.250;2023-04-29T05:09:30;12.80;99.90
2202;DHT22;1107;48.654;9.250;2023-04-29T05:11:57;12.70;99.90
2202;DHT22;1107;48.654;9.250;2023-04-29T05:14:24;12.70;99.90
2202;DHT22;1107;48.654;9.250;2023-04-29T05:16:51;12.90;99.90
2202;DHT22;1107;48.654;9.250;2023-04-29T05:19:18;13.10;99.90
2202;DHT22;1107;48.654;9.250;2023-04-29T05:21:45;13.30;99.90
2202;DHT22;1107;48.654;9.250;2023-04-29T05:24:14;13.60;99.90
2202;DHT22;1107;48.654;9.250;2023-04-29T05:26:41;13.80;99.90
2202;DHT22;1107;48.654;9.250;2023-04-29T05:29:08;14.10;99.90
2202;DHT22;1107;48.654;9.250;2023-04-29T05:31:35;14.20;99.90
2202;DHT22;1107;48.654;9.250;2023-04-29T05:34:03;14.40;99.90
2202;DHT22;1107;48.654;9.250;2023-04-29T05:36:30;14.60;99.90
2202;DHT22;1107;48.654;9.250;2023-04-29T05:38:57;14.80;99.90
2202;DHT22;1107;48.654;9.250;2023-04-29T05:41:25;14.90;99.90
2202;DHT22;1107;48.654;9.250;2023-04-29T05:43:52;15.10;99.90
2202;DHT22;1107;48.654;9.250;2023-04-29T05:46:19;15.20;99.90
2202;DHT22;1107;48.654;9.250;2023-04-29T05:48:47;15.20;99.90
2202;DHT22;1107;48.654;9.250;2023-04-29T05:51:14;15.30;99.90
2202;DHT22;1107;48.654;9.250;2023-04-29T05:53:41;15.10;99.90
2202;DHT22;1107;48.654;9.250;2023-04-29T05:56:08;14.80;99.90
2202;DHT22;1107;48.654;9.250;2023-04-29T05:58:37;14.60;99.90
2202;DHT22;1107;48.654;9.250;2023-04-29T06:01:04;14.30;99.90
2202;DHT22;1107;48.654;9.250;2023-04-29T06:03:31;14.20;99.90
2202;DHT22;1107;48.654;9.250;2023-04-29T06:05:59;14.20;99.90
2202;DHT22;1107;48.654;9.250;2023-04-29T06:08:26;14.30;99.90
2202;DHT22;1107;48.654;9.250;2023-04-29T06:10:53;14.20;99.90
2202;DHT22;1107;48.654;9.250;2023-04-29T06:13:20;14.20;99.90
2202;DHT22;1107;48.654;9.250;2023-04-29T06:15:48;14.60;99.90
2202;DHT22;1107;48.654;9.250;2023-04-29T06:18:15;14.80;99.90
2202;DHT22;1107;48.654;9.250;2023-04-29T06:20:42;15.20;99.90
2202;DHT22;1107;48.654;9.250;2023-04-29T06:23:09;15.80;99.90
2202;DHT22;1107;48.654;9.250;2023-04-29T06:25:37;16.50;99.90
2202;DHT22;1107;48.654;9.250;2023-04-29T06:28:04;16.90;99.90
2202;DHT22;1107;48.654;9.250;2023-04-29T06:30:32;17.30;99.90
2202;DHT22;1107;48.654;9.250;2023-04-29T06:33:01;17.20;99.90
2202;DHT22;1107;48.654;9.250;2023-04-29T06:35:28;17.00;99.90
2202;DHT22;1107;48.654;9.250;2023-04-29T06:37:55;17.00;99.90
2202;DHT22;1107;48.654;9.250;2023-04-29T06:40:22;17.00;99.90
2202;DHT22;1107;48.654;9.250;2023-04-29T06:42:49;17.30;99.90
2202;DHT22;1107;48.654;9.250;2023-04-29T06:45:16;17.70;99.90
2202;DHT22;1107;48.654;9.250;2023-04-29T06:47:43;17.70;99.90
2202;DHT22;1107;48.654;9.250;2023-04-29T06:50:12;17.40;99.90
2202;DHT22;1107;48.654;9.250;2023-04-29T06:52:39;17.10;99.90
2202;DHT22;1107;48.654;9.250;2023-04-29T06:55:07;16.80;99.90
2202;DHT22;1107;48.654;9.250;2023-04-29T06:57:34;16.60;99.90
2202;DHT22;1107;48.654;9.250;2023-04-29T07:00:01;16.20;99.90
2202;DHT22;1107;48.654;9.250;2023-04-29T07:02:29;16.50;99.90
2202;DHT22;1107;48.654;9.250;2023-04-29T07:04:55;16.70;99.90
2202;DHT22;1107;48.654;9.250;2023-04-29T07:07:24;17.10;99.90
2202;DHT22;1107;48.654;9.250;2023-04-29T07:09:51;17.00;99.90
2202;DHT22;1107;48.654;9.250;2023-04-29T07:12:18;17.00;99.90
2202;DHT22;1107;48.654;9.250;2023-04-29T07:14:45;16.70;99.90
2202;DHT22;1107;48.654;9.250;2023-04-29T07:17:12;16.20;99.90
2202;DHT22;1107;48.654;9.250;2023-04-29T07:19:39;15.60;99.90
2202;DHT22;1107;48.654;9.250;2023-04-29T07:22:06;16.20;99.90
2202;DHT22;1107;48.654;9.250;2023-04-29T07:24:35;17.40;99.90
2202;DHT22;1107;48.654;9.250;2023-04-29T07:27:01;18.60;99.90
2202;DHT22;1107;48.654;9.250;2023-04-29T07:29:28;19.70;99.90
2202;DHT22;1107;48.654;9.250;2023-04-29T07:31:56;20.40;99.90
2202;DHT22;1107;48.654;9.250;2023-04-29T07:34:22;20.90;99.90
2202;DHT22;1107;48.654;9.250;2023-04-29T07:36:50;21.30;99.90
2202;DHT22;1107;48.654;9.250;2023-04-29T07:39:17;21.70;99.90
2202;DHT22;1107;48.654;9.250;2023-04-29T07:41:45;22.10;99.90
2202;DHT22;1107;48.654;9.250;2023-04-29T07:44:12;22.40;99.90
2202;DHT22;1107;48.654;9.250;2023-04-29T07:46:39;22.70;99.90
2202;DHT22;1107;48.654;9.250;2023-04-29T07:49:06;23.00;99.90
2202;DHT22;1107;48.654;9.250;2023-04-29T07:51:33;23.40;99.90
2202;DHT22;1107;48.654;9.250;2023-04-29T07:54:00;23.60;99.90
2202;DHT22;1107;48.654;9.250;2023-04-29T07:56:27;22.90;99.90
2202;DHT22;1107;48.654;9.250;2023-04-29T07:58:55;23.20;99.90
2202;DHT22;1107;48.654;9.250;2023-04-29T08:01:22;23.10;99.90
2202;DHT22;1107;48.654;9.250;2023-04-29T08:03:49;22.30;99.90
2202;DHT22;1107;48.654;9.250;2023-04-29T08:06:16;21.10;99.90
2202;DHT22;1107;48.654;9.250;2023-04-29T08:08:46;20.40;99.90
2202;DHT22;1107;48.654;9.250;2023-04-29T08:11:16;20.30;1.00
2202;DHT22;1107;48.654;9.250;2023-04-29T08:13:44;20.30;1.00
2202;DHT22;1107;48.654;9.250;2023-04-29T08:16:13;20.60;1.00
2202;DHT22;1107;48.654;9.250;2023-04-29T08:18:40;20.60;1.00
2202;DHT22;1107;48.654;9.250;2023-04-29T08:21:07;21.00;1.00
2202;DHT22;1107;48.654;9.250;2023-04-29T08:23:36;21.90;99.90
2202;DHT22;1107;48.654;9.250;2023-04-29T08:26:03;23.00;99.90
2202;DHT22;1107;48.654;9.250;2023-04-29T08:28:30;23.00;99.90
2202;DHT22;1107;48.654;9.250;2023-04-29T08:30:56;22.70;99.90
2202;DHT22;1107;48.654;9.250;2023-04-29T08:33:25;22.30;99.90
2202;DHT22;1107;48.654;9.250;2023-04-29T08:35:57;21.80;99.90
2202;DHT22;1107;48.654;9.250;2023-04-29T08:38:24;21.50;99.90
2202;DHT22;1107;48.654;9.250;2023-04-29T08:40:52;21.80;99.90
2202;DHT22;1107;48.654;9.250;2023-04-29T08:43:19;22.00;99.90
2202;DHT22;1107;48.654;9.250;2023-04-29T08:45:47;22.20;99.90
2202;DHT22;1107;48.654;9.250;2023-04-29T08:48:15;22.40;99.90
2202;DHT22;1107;48.654;9.250;2023-04-29T08:50:44;22.10;99.90
2202;DHT22;1107;48.654;9.250;2023-04-29T08:53:12;21.90;99.90
2202;DHT22;1107;48.654;9.250;2023-04-29T08:55:41;21.80;99.90
2202;DHT22;1107;48.654;9.250;2023-04-29T08:58:09;21.60;99.90
2202;DHT22;1107;48.654;9.250;2023-04-29T09:00:37;21.30;99.90
2202;DHT22;1107;48.654;9.250;2023-04-29T09:03:13;21.20;99.90
2202;DHT22;1107;48.654;9.250;2023-04-29T09:05:40;21.20;99.90
2202;DHT22;1107;48.654;9.250;2023-04-29T09:08:11;21.10;99.90
2202;DHT22;1107;48.654;9.250;2023-04-29T09:10:38;21.20;99.90
2202;DHT22;1107;48.654;9.250;2023-04-29T09:13:07;21.00;99.90
2202;DHT22;1107;48.654;9.250;2023-04-29T09:15:35;21.00;99.90
2202;DHT22;1107;48.654;9.250;2023-04-29T09:18:05;20.90;99.90
2202;DHT22;1107;48.654;9.250;2023-04-29T09:20:31;20.80;99.90
2202;DHT22;1107;48.654;9.250;2023-04-29T09:23:00;20.90;99.90
2202;DHT22;1107;48.654;9.250;2023-04-29T09:25:29;20.90;99.90
2202;DHT22;1107;48.654;9.250;2023-04-29T09:27:56;21.50;99.90
2202;DHT22;1107;48.654;9.250;2023-04-29T09:30:23;22.00;99.90
2202;DHT22;1107;48.654;9.250;2023-04-29T09:33:05;22.10;99.90
2202;DHT22;1107;48.654;9.250;2023-04-29T09:35:39;22.90;99.90
2202;DHT22;1107;48.654;9.250;2023-04-29T09:38:11;24.10;99.90
2202;DHT22;1107;48.654;9.250;2023-04-29T09:40:40;25.60;99.90
2202;DHT22;1107;48.654;9.250;2023-04-29T09:43:12;26.10;99.90
2202;DHT22;1107;48.654;9.250;2023-04-29T09:45:41;25.80;99.90
2202;DHT22;1107;48.654;9.250;2023-04-29T09:48:10;25.30;99.90
2202;DHT22;1107;48.654;9.250;2023-04-29T09:50:38;24.90;99.90
2202;DHT22;1107;48.654;9.250;2023-04-29T09:53:07;24.20;99.90
2202;DHT22;1107;48.654;9.250;2023-04-29T09:55:34;23.50;99.90
2202;DHT22;1107;48.654;9.250;2023-04-29T09:58:03;22.70;99.90
2202;DHT22;1107;48.654;9.250;2023-04-29T10:00:33;23.60;99.90
2202;DHT22;1107;48.654;9.250;2023-04-29T10:03:00;24.60;99.90
2202;DHT22;1107;48.654;9.250;2023-04-29T10:05:29;25.50;99.90
2202;DHT22;1107;48.654;9.250;2023-04-29T10:07:57;25.90;99.90
2202;DHT22;1107;48.654;9.250;2023-04-29T10:10:26;25.60;99.90
2202;DHT22;1107;48.654;9.250;2023-04-29T10:12:54;24.60;99.90
2202;DHT22;1107;48.654;9.250;2023-04-29T10:15:28;23.40;99.90
2202;DHT22;1107;48.654;9.250;2023-04-29T10:17:59;22.40;99.90
2202;DHT22;1107;48.654;9.250;2023-04-29T10:20:29;21.70;99.90
2202;DHT22;1107;48.654;9.250;2023-04-29T10:22:56;20.90;99.90
2202;DHT22;1107;48.654;9.250;2023-04-29T10:25:25;20.80;99.90
2202;DHT22;1107;48.654;9.250;2023-04-29T10:27:54;20.70;99.90
2202;DHT22;1107;48.654;9.250;2023-04-29T10:30:23;20.50;1.00
2202;DHT22;1107;48.654;9.250;2023-04-29T10:32:50;20.80;1.00
2202;DHT22;1107;48.654;9.250;2023-04-29T10:35:18;20.90;1.00
2202;DHT22;1107;48.654;9.250;2023-04-29T10:37:48;21.30;1.00
2202;DHT22;1107;48.654;9.250;2023-04-29T10:40:16;21.30;99.90
2202;DHT22;1107;48.654;9.250;2023-04-29T10:42:47;21.20;1.00
2202;DHT22;1107;48.654;9.250;2023-04-29T10:45:25;21.00;99.90
2202;DHT22;1107;48.654;9.250;2023-04-29T10:48:15;21.00;99.90
2202;DHT22;1107;48.654;9.250;2023-04-29T10:51:00;22.00;99.90
2202;DHT22;1107;48.654;9.250;2023-04-29T10:53:28;22.70;99.90
2202;DHT22;1107;48.654;9.250;2023-04-29T10:55:58;23.30;99.90
2202;DHT22;1107;48.654;9.250;2023-04-29T10:58:42;23.40;99.90
2202;DHT22;1107;48.654;9.250;2023-04-29T11:01:12;23.50;99.90
2202;DHT22;1107;48.654;9.250;2023-04-29T11:03:50;23.50;99.90
2202;DHT22;1107;48.654;9.250;2023-04-29T11:06:24;24.10;99.90
2202;DHT22;1107;48.654;9.250;2023-04-29T11:09:01;23.90;99.90
2202;DHT22;1107;48.654;9.250;2023-04-29T11:11:40;23.50;99.90
2202;DHT22;1107;48.654;9.250;2023-04-29T11:14:08;23.00;99.90
2202;DHT22;1107;48.654;9.250;2023-04-29T11:16:37;22.50;99.90
2202;DHT22;1107;48.654;9.250;2023-04-29T11:19:14;22.30;99.90
2202;DHT22;1107;48.654;9.250;2023-04-29T11:21:41;22.40;99.90
2202;DHT22;1107;48.654;9.250;2023-04-29T11:24:10;22.40;99.90
2202;DHT22;1107;48.654;9.250;2023-04-29T11:26:37;23.10;99.90
2202;DHT22;1107;48.654;9.250;2023-04-29T11:29:04;23.90;99.90
2202;DHT22;1107;48.654;9.250;2023-04-29T11:31:36;24.60;99.90
2202;DHT22;1107;48.654;9.250;2023-04-29T11:34:04;23.90;99.90
2202;DHT22;1107;48.654;9.250;2023-04-29T11:36:31;23.90;99.90
2202;DHT22;1107;48.654;9.250;2023-04-29T11:38:59;23.80;99.90
2202;DHT22;1107;48.654;9.250;2023-04-29T11:41:27;23.90;99.90
2202;DHT22;1107;48.654;9.250;2023-04-29T11:43:54;23.50;99.90
2202;DHT22;1107;48.654;9.250;2023-04-29T11:46:22;23.00;99.90
2202;DHT22;1107;48.654;9.250;2023-04-29T11:48:50;22.50;99.90
2202;DHT22;1107;48.654;9.250;2023-04-29T11:51:18;22.80;99.90
2202;DHT22;1107;48.654;9.250;2023-04-29T11:53:45;22.60;99.90
2202;DHT22;1107;48.654;9.250;2023-04-29T11:56:13;22.80;99.90
2202;DHT22;1107;48.654;9.250;2023-04-29T11:58:41;23.70;99.90
2202;DHT22;1107;48.654;9.250;2023-04-29T12:01:09;24.10;99.90
2202;DHT22;1107;48.654;9.250;2023-04-29T12:03:36;23.60;99.90
2202;DHT22;1107;48.654;9.250;2023-04-29T12:06:04;23.40;99.90
2202;DHT22;1107;48.654;9.250;2023-04-29T12:08:31;23.60;99.90
2202;DHT22;1107;48.654;9.250;2023-04-29T12:10:59;24.20;99.90
2202;DHT22;1107;48.654;9.250;2023-04-29T12:13:28;24.30;99.90
2202;DHT22;1107;48.654;9.250;2023-04-29T12:15:57;24.50;99.90
2202;DHT22;1107;48.654;9.250;2023-04-29T12:18:25;24.60;99.90
2202;DHT22;1107;48.654;9.250;2023-04-29T12:20:52;24.60;99.90
2202;DHT22;1107;48.654;9.250;2023-04-29T12:23:31;24.80;99.90
2202;DHT22;1107;48.654;9.250;2023-04-29T12:25:59;24.80;99.90
2202;DHT22;1107;48.654;9.250;2023-04-29T12:28:27;24.60;99.90
2202;DHT22;1107;48.654;9.250;2023-04-29T12:30:56;24.40;99.90
2202;DHT22;1107;48.654;9.250;2023-04-29T12:33:25;24.50;99.90
2202;DHT22;1107;48.654;9.250;2023-04-29T12:35:54;24.90;99.90
2202;DHT22;1107;48.654;9.250;2023-04-29T12:38:22;24.30;99.90
2202;DHT22;1107;48.654;9.250;2023-04-29T12:40:53;23.60;99.90
2202;DHT22;1107;48.654;9.250;2023-04-29T12:43:25;22.90;99.90
2202;DHT22;1107;48.654;9.250;2023-04-29T12:45:54;22.50;99.90
2202;DHT22;1107;48.654;9.250;2023-04-29T12:48:28;22.80;99.90
2202;DHT22;1107;48.654;9.250;2023-04-29T12:50:56;22.50;99.90
2202;DHT22;1107;48.654;9.250;2023-04-29T12:53:24;22.30;99.90
2202;DHT22;1107;48.654;9.250;2023-04-29T12:55:53;22.00;99.90
2202;DHT22;1107;48.654;9.250;2023-04-29T12:58:20;22.40;99.90
2202;DHT22;1107;48.654;9.250;2023-04-29T13:00:47;22.00;99.90
2202;DHT22;1107;48.654;9.250;2023-04-29T13:03:14;22.40;99.90
2202;DHT22;1107;48.654;9.250;2023-04-29T13:05:41;22.80;99.90
2202;DHT22;1107;48.654;9.250;2023-04-29T13:08:08;22.70;99.90
2202;DHT22;1107;48.654;9.250;2023-04-29T13:10:35;22.60;99.90
2202;DHT22;1107;48.654;9.250;2023-04-29T13:13:03;22.30;99.90
2202;DHT22;1107;48.654;9.250;2023-04-29T13:15:30;21.80;99.90
2202;DHT22;1107;48.654;9.250;2023-04-29T13:17:57;22.10;99.90
2202;DHT22;1107;48.654;9.250;2023-04-29T13:20:24;22.00;99.90
2202;DHT22;1107;48.654;9.250;2023-04-29T13:22:51;21.70;99.90
2202;DHT22;1107;48.654;9.250;2023-04-29T13:25:18;21.40;99.90
2202;DHT22;1107;48.654;9.250;2023-04-29T13:27:45;21.40;99.90
2202;DHT22;1107;48.654;9.250;2023-04-29T13:30:14;21.50;99.90
2202;DHT22;1107;48.654;9.250;2023-04-29T13:32:41;21.40;99.90
2202;DHT22;1107;48.654;9.250;2023-04-29T13:35:09;21.30;99.90
2202;DHT22;1107;48.654;9.250;2023-04-29T13:37:35;21.50;99.90
2202;DHT22;1107;48.654;9.250;2023-04-29T13:40:03;21.50;99.90
2202;DHT22;1107;48.654;9.250;2023-04-29T13:42:31;21.40;99.90
2202;DHT22;1107;48.654;9.250;2023-04-29T13:44:58;21.40;99.90
2202;DHT22;1107;48.654;9.250;2023-04-29T13:47:26;21.30;99.90
2202;DHT22;1107;48.654;9.250;2023-04-29T13:49:53;21.50;99.90
2202;DHT22;1107;48.654;9.250;2023-04-29T13:52:21;21.70;99.90
2202;DHT22;1107;48.654;9.250;2023-04-29T13:54:48;22.10;99.90
2202;DHT22;1107;48.654;9.250;2023-04-29T13:57:14;22.70;99.90
2202;DHT22;1107;48.654;9.250;2023-04-29T13:59:41;22.90;99.90
2202;DHT22;1107;48.654;9.250;2023-04-29T14:02:08;22.50;99.90
2202;DHT22;1107;48.654;9.250;2023-04-29T14:04:39;22.50;99.90
2202;DHT22;1107;48.654;9.250;2023-04-29T14:07:06;22.20;99.90
2202;DHT22;1107;48.654;9.250;2023-04-29T14:09:33;21.80;99.90
2202;DHT22;1107;48.654;9.250;2023-04-29T14:12:00;21.20;99.90
2202;DHT22;1107;48.654;9.250;2023-04-29T14:14:27;20.80;99.90
2202;DHT22;1107;48.654;9.250;2023-04-29T14:16:54;20.50;99.90
2202;DHT22;1107;48.654;9.250;2023-04-29T14:19:21;20.30;99.90
2202;DHT22;1107;48.654;9.250;2023-04-29T14:21:49;20.30;99.90
2202;DHT22;1107;48.654;9.250;2023-04-29T14:24:16;20.60;99.90
2202;DHT22;1107;48.654;9.250;2023-04-29T14:26:43;20.30;99.90
2202;DHT22;1107;48.654;9.250;2023-04-29T14:29:10;20.20;99.90
2202;DHT22;1107;48.654;9.250;2023-04-29T14:31:37;20.10;99.90
2202;DHT22;1107;48.654;9.250;2023-04-29T14:34:04;20.20;99.90
2202;DHT22;1107;48.654;9.250;2023-04-29T14:36:31;20.10;99.90
2202;DHT22;1107;48.654;9.250;2023-04-29T14:39:00;20.10;99.90
2202;DHT22;1107;48.654;9.250;2023-04-29T14:41:28;19.70;99.90
2202;DHT22;1107;48.654;9.250;2023-04-29T14:43:55;19.30;99.90
2202;DHT22;1107;48.654;9.250;2023-04-29T14:46:22;19.10;99.90
2202;DHT22;1107;48.654;9.250;2023-04-29T14:48:49;19.00;99.90
2202;DHT22;1107;48.654;9.250;2023-04-29T14:51:16;18.90;99.90
2202;DHT22;1107;48.654;9.250;2023-04-29T14:53:43;18.80;1.00
2202;DHT22;1107;48.654;9.250;2023-04-29T14:56:11;18.80;1.00
2202;DHT22;1107;48.654;9.250;2023-04-29T14:58:39;18.70;1.00
2202;DHT22;1107;48.654;9.250;2023-04-29T15:01:06;18.70;1.00
2202;DHT22;1107;48.654;9.250;2023-04-29T15:03:33;18.70;1.00
2202;DHT22;1107;48.654;9.250;2023-04-29T15:06:01;18.50;1.00
2202;DHT22;1107;48.654;9.250;2023-04-29T15:08:28;18.50;1.00
2202;DHT22;1107;48.654;9.250;2023-04-29T15:10:55;18.50;1.00
2202;DHT22;1107;48.654;9.250;2023-04-29T15:13:23;18.50;1.00
2202;DHT22;1107;48.654;9.250;2023-04-29T15:15:50;18.50;1.00
2202;DHT22;1107;48.654;9.250;2023-04-29T15:18:17;18.30;1.00
2202;DHT22;1107;48.654;9.250;2023-04-29T15:20:44;18.20;1.00
2202;DHT22;1107;48.654;9.250;2023-04-29T15:23:11;18.20;1.00
2202;DHT22;1107;48.654;9.250;2023-04-29T15:25:38;18.30;1.00
2202;DHT22;1107;48.654;9.250;2023-04-29T15:28:05;18.40;1.00
2202;DHT22;1107;48.654;9.250;2023-04-29T15:30:33;18.70;1.00
2202;DHT22;1107;48.654;9.250;2023-04-29T15:33:00;19.00;1.00
2202;DHT22;1107;48.654;9.250;2023-04-29T15:35:29;19.10;1.00
2202;DHT22;1107;48.654;9.250;2023-04-29T15:37:56;19.20;1.00
2202;DHT22;1107;48.654;9.250;2023-04-29T15:40:23;19.10;1.00
2202;DHT22;1107;48.654;9.250;2023-04-29T15:42:50;19.10;1.00
2202;DHT22;1107;48.654;9.250;2023-04-29T15:45:17;19.20;1.00
2202;DHT22;1107;48.654;9.250;2023-04-29T15:47:46;19.30;1.00
2202;DHT22;1107;48.654;9.250;2023-04-29T15:50:13;19.20;1.00
2202;DHT22;1107;48.654;9.250;2023-04-29T15:52:40;19.00;1.00
2202;DHT22;1107;48.654;9.250;2023-04-29T15:55:07;18.60;1.00
2202;DHT22;1107;48.654;9.250;2023-04-29T15:57:34;18.40;1.00
2202;DHT22;1107;48.654;9.250;2023-04-29T16:00:07;18.30;1.00
2202;DHT22;1107;48.654;9.250;2023-04-29T16:02:34;18.20;1.00
2202;DHT22;1107;48.654;9.250;2023-04-29T16:05:03;18.20;1.00
2202;DHT22;1107;48.654;9.250;2023-04-29T16:07:30;18.10;1.00